createdAt,value
2023-03-27T00:02:04.788Z,3.44
2023-03-27T00:04:31.338Z,3.45
2023-03-27T00:06:59.395Z,3.46
2023-03-27T00:09:27.259Z,3.46
2023-03-27T00:11:56.242Z,3.45
2023-03-27T00:14:23.839Z,3.45
2023-03-27T00:16:50.955Z,3.46
2023-03-27T00:19:18.828Z,3.45
2023-03-27T00:21:45.364Z,3.46
2023-03-27T00:24:12.572Z,3.46
2023-03-27T00:26:40.915Z,3.47
2023-03-27T00:29:08.049Z,3.43
2023-03-27T00:31:35.080Z,3.40
2023-03-27T00:34:01.857Z,3.39
2023-03-27T00:36:28.470Z,3.38
2023-03-27T00:38:54.883Z,3.35
2023-03-27T00:41:22.785Z,3.35
2023-03-27T00:43:54.117Z,3.35
2023-03-27T00:46:43.783Z,3.37
2023-03-27T00:49:13.154Z,3.37
2023-03-27T00:51:42.573Z,3.37
2023-03-27T00:54:10.836Z,3.37
2023-03-27T00:56:38.649Z,3.37
2023-03-27T00:59:21.049Z,3.32
2023-03-27T01:01:48.619Z,3.29
2023-03-27T01:04:20.378Z,3.27
2023-03-27T01:06:50.189Z,3.22
2023-03-27T01:09:20.238Z,3.18
2023-03-27T01:12:08.978Z,3.10
2023-03-27T01:15:00.813Z,3.06
2023-03-27T01:17:52.157Z,3.01
2023-03-27T01:20:19.107Z,3.02
2023-03-27T01:23:58.724Z,3.02
2023-03-27T01:26:36.800Z,3.10
2023-03-27T01:29:29.983Z,3.13
2023-03-27T01:32:50.644Z,3.14
2023-03-27T01:35:58.160Z,3.17
2023-03-27T01:38:49.185Z,3.19
2023-03-27T01:41:29.748Z,3.20
2023-03-27T01:44:14.677Z,3.17
2023-03-27T01:46:56.669Z,3.15
2023-03-27T01:49:32.963Z,3.13
2023-03-27T01:52:04.862Z,3.08
2023-03-27T01:54:35.964Z,3.05
2023-03-27T01:57:05.336Z,3.01
2023-03-27T01:59:35.861Z,2.98
2023-03-27T02:02:13.088Z,2.97
2023-03-27T02:04:49.097Z,2.99
2023-03-27T02:07:20.474Z,3.01
2023-03-27T02:09:55.489Z,3.00
2023-03-27T02:12:33.740Z,2.93
2023-03-27T02:15:23.706Z,2.87
2023-03-27T02:18:05.372Z,2.78
2023-03-27T02:20:33.374Z,2.70
2023-03-27T02:23:00.659Z,2.63
2023-03-27T02:25:34.967Z,2.55
2023-03-27T02:28:35.477Z,2.52
2023-03-27T02:31:32.801Z,2.48
2023-03-27T02:34:00.474Z,2.44
2023-03-27T02:36:54.923Z,2.39
2023-03-27T02:39:40.138Z,2.32
2023-03-27T02:42:38.970Z,2.23
2023-03-27T02:45:20.847Z,2.17
2023-03-27T02:47:54.580Z,2.11
2023-03-27T02:50:35.447Z,2.08
2023-03-27T02:53:05.182Z,2.03
2023-03-27T02:55:38.948Z,2.01
2023-03-27T02:58:14.280Z,1.98
2023-03-27T03:00:48.614Z,1.97
2023-03-27T03:03:38.830Z,1.99
2023-03-27T03:06:06.941Z,1.99
2023-03-27T03:08:38.131Z,1.99
2023-03-27T03:11:09.042Z,2.02
2023-03-27T03:13:35.926Z,2.06
2023-03-27T03:16:02.438Z,2.05
2023-03-27T03:18:28.835Z,2.05
2023-03-27T03:20:55.694Z,1.99
2023-03-27T03:23:23.534Z,1.93
2023-03-27T03:25:52.606Z,1.85
2023-03-27T03:28:19.181Z,1.77
2023-03-27T03:30:50.382Z,1.70
2023-03-27T03:33:19.466Z,1.66
2023-03-27T03:35:48.400Z,1.63
2023-03-27T03:38:16.244Z,1.62
2023-03-27T03:40:42.651Z,1.57
2023-03-27T03:43:09.064Z,1.55
2023-03-27T03:45:35.663Z,1.52
2023-03-27T03:48:02.196Z,1.49
2023-03-27T03:50:28.665Z,1.45
2023-03-27T03:52:55.100Z,1.43
2023-03-27T03:55:21.538Z,1.37
2023-03-27T03:57:49.038Z,1.32
2023-03-27T04:00:16.986Z,1.28
2023-03-27T04:02:44.067Z,1.27
2023-03-27T04:05:11.063Z,1.21
2023-03-27T04:07:39.998Z,1.19
2023-03-27T04:10:08.592Z,1.16
2023-03-27T04:12:35.044Z,1.14
2023-03-27T04:15:01.442Z,1.13
2023-03-27T04:17:28.440Z,1.11
2023-03-27T04:19:54.841Z,1.09
2023-03-27T04:22:22.869Z,1.09
2023-03-27T04:24:50.581Z,1.10
2023-03-27T04:27:17.836Z,1.12
2023-03-27T04:29:47.694Z,1.12
2023-03-27T04:32:19.074Z,1.10
2023-03-27T04:34:47.171Z,1.06
2023-03-27T04:37:14.597Z,1.04
2023-03-27T04:39:43.436Z,1.01
2023-03-27T04:42:10.521Z,0.97
2023-03-27T04:44:37.736Z,0.95
2023-03-27T04:49:46.946Z,0.90
2023-03-27T04:52:14.341Z,0.90
2023-03-27T04:54:42.010Z,0.97
2023-03-27T04:57:09.932Z,1.02
2023-03-27T04:59:37.204Z,1.09
2023-03-27T05:02:04.999Z,1.15
2023-03-27T05:04:32.228Z,1.15
2023-03-27T05:07:00.055Z,1.14
2023-03-27T05:09:26.633Z,1.13
2023-03-27T05:11:53.060Z,1.10
2023-03-27T05:14:22.502Z,1.08
2023-03-27T05:16:52.453Z,1.04
2023-03-27T05:19:20.153Z,0.99
2023-03-27T05:21:47.625Z,0.94
2023-03-27T05:24:15.408Z,0.93
2023-03-27T05:26:43.259Z,0.96
2023-03-27T05:29:09.898Z,0.98
2023-03-27T05:31:37.046Z,0.97
2023-03-27T05:34:04.248Z,0.97
2023-03-27T05:36:30.716Z,0.96
2023-03-27T05:38:57.989Z,0.94
2023-03-27T05:41:24.946Z,0.93
2023-03-27T05:43:51.784Z,0.90
2023-03-27T05:46:20.774Z,0.88
2023-03-27T05:48:48.414Z,0.87
2023-03-27T05:51:15.133Z,0.86
2023-03-27T05:53:42.146Z,0.86
2023-03-27T05:56:09.623Z,0.90
2023-03-27T05:58:36.520Z,0.90
2023-03-27T06:01:03.459Z,0.92
2023-03-27T06:03:30.533Z,0.94
2023-03-27T06:06:00.202Z,0.95
2023-03-27T06:08:29.395Z,1.01
2023-03-27T06:10:55.978Z,1.06
2023-03-27T06:13:24.070Z,1.11
2023-03-27T06:15:53.990Z,1.15
2023-03-27T06:18:20.619Z,1.21
2023-03-27T06:20:47.188Z,1.24
2023-03-27T06:23:14.428Z,1.27
2023-03-27T06:25:40.844Z,1.36
2023-03-27T06:28:09.450Z,1.42
2023-03-27T06:30:39.503Z,1.45
2023-03-27T06:33:07.735Z,1.45
2023-03-27T06:35:35.181Z,1.48
2023-03-27T06:38:04.618Z,1.51
2023-03-27T06:40:31.956Z,1.59
2023-03-27T06:43:04.277Z,1.70
2023-03-27T06:45:33.943Z,1.86
2023-03-27T06:48:15.342Z,2.01
2023-03-27T06:50:48.642Z,2.05
2023-03-27T06:53:26.489Z,2.16
2023-03-27T06:55:54.795Z,2.28
2023-03-27T06:58:21.709Z,2.40
2023-03-27T07:00:49.840Z,2.49
2023-03-27T07:03:17.919Z,2.55
2023-03-27T07:05:45.063Z,2.60
2023-03-27T07:08:23.643Z,2.64
2023-03-27T07:11:09.856Z,2.68
2023-03-27T07:13:38.686Z,2.82
2023-03-27T07:16:05.827Z,3.02
2023-03-27T07:18:32.410Z,3.27
2023-03-27T07:20:59.132Z,3.48
2023-03-27T07:23:26.674Z,3.65
2023-03-27T07:25:58.099Z,3.86
2023-03-27T07:28:24.900Z,3.99
2023-03-27T07:30:51.377Z,4.12
2023-03-27T07:33:18.560Z,4.36
2023-03-27T07:35:48.065Z,4.53
2023-03-27T07:38:14.754Z,4.65
2023-03-27T07:40:46.009Z,4.84
2023-03-27T07:43:13.497Z,5.03
2023-03-27T07:45:41.581Z,5.14
2023-03-27T07:48:11.491Z,5.27
2023-03-27T07:50:38.228Z,5.37
2023-03-27T07:53:06.453Z,5.60
2023-03-27T07:55:36.767Z,5.70
2023-03-27T07:58:04.066Z,5.84
2023-03-27T08:00:31.474Z,6.00
2023-03-27T08:03:06.754Z,6.06
2023-03-27T08:05:33.689Z,6.05
2023-03-27T08:08:00.165Z,6.09
2023-03-27T08:10:27.508Z,6.21
2023-03-27T08:12:53.921Z,6.21
2023-03-27T08:15:20.434Z,6.18
2023-03-27T08:17:47.827Z,6.11
2023-03-27T08:20:15.274Z,6.04
2023-03-27T08:22:41.918Z,5.86
2023-03-27T08:25:10.263Z,5.90
2023-03-27T08:27:36.937Z,5.99
2023-03-27T08:30:04.511Z,6.26
2023-03-27T08:32:31.826Z,6.52
2023-03-27T08:34:58.513Z,6.55
2023-03-27T08:37:25.043Z,6.40
2023-03-27T08:39:51.424Z,6.53
2023-03-27T08:42:27.493Z,6.62
2023-03-27T08:44:55.300Z,6.52
2023-03-27T08:47:33.862Z,6.51
2023-03-27T08:50:06.412Z,6.67
2023-03-27T08:52:34.116Z,6.91
2023-03-27T08:55:20.815Z,7.28
2023-03-27T08:57:50.227Z,7.34
2023-03-27T09:00:27.800Z,7.49
2023-03-27T09:03:03.941Z,7.13
2023-03-27T09:05:44.323Z,7.13
2023-03-27T09:08:27.873Z,7.42
2023-03-27T09:11:08.217Z,7.57
2023-03-27T09:13:47.045Z,7.88
2023-03-27T09:16:21.427Z,8.13
2023-03-27T09:19:02.760Z,8.47
2023-03-27T09:21:40.648Z,8.07
2023-03-27T09:24:13.502Z,8.42
2023-03-27T09:26:39.912Z,8.58
2023-03-27T09:29:20.167Z,7.02
2023-03-27T09:31:49.179Z,5.66
2023-03-27T09:34:25.145Z,4.86
2023-03-27T09:36:51.705Z,4.35
2023-03-27T09:39:23.673Z,3.91
2023-03-27T09:41:57.959Z,3.66
2023-03-27T09:44:28.537Z,3.53
2023-03-27T09:47:16.893Z,3.47
2023-03-27T09:49:52.945Z,3.63
2023-03-27T09:52:48.787Z,3.75
2023-03-27T09:55:31.891Z,4.25
2023-03-27T09:58:14.159Z,4.79
2023-03-27T10:00:40.722Z,5.31
2023-03-27T10:03:20.021Z,5.67
2023-03-27T10:05:49.416Z,5.80
2023-03-27T10:08:32.175Z,5.85
2023-03-27T10:10:59.103Z,6.04
2023-03-27T10:13:29.220Z,6.06
2023-03-27T10:16:00.858Z,6.28
2023-03-27T10:18:29.872Z,6.45
2023-03-27T10:21:06.638Z,6.55
2023-03-27T10:23:44.013Z,6.71
2023-03-27T10:26:18.764Z,6.90
2023-03-27T10:28:51.586Z,6.98
2023-03-27T10:31:33.148Z,7.13
2023-03-27T10:34:05.964Z,7.34
2023-03-27T10:36:35.303Z,7.63
2023-03-27T10:39:06.665Z,7.73
2023-03-27T10:41:36.151Z,7.88
2023-03-27T10:44:13.482Z,7.57
2023-03-27T10:46:41.010Z,7.18
2023-03-27T10:49:10.525Z,6.45
2023-03-27T10:51:48.079Z,5.90
2023-03-27T10:54:42.424Z,5.62
2023-03-27T10:57:18.599Z,5.59
2023-03-27T10:59:54.242Z,6.09
2023-03-27T11:02:29.183Z,6.51
2023-03-27T11:05:01.366Z,6.81
2023-03-27T11:07:42.468Z,7.21
2023-03-27T11:10:29.161Z,7.55
2023-03-27T11:13:01.542Z,7.22
2023-03-27T11:15:36.857Z,6.85
2023-03-27T11:18:12.505Z,7.15
2023-03-27T11:20:50.266Z,7.55
2023-03-27T11:23:28.536Z,7.94
2023-03-27T11:25:59.729Z,8.23
2023-03-27T11:28:43.345Z,8.29
2023-03-27T11:31:22.002Z,7.94
2023-03-27T11:33:55.090Z,7.53
2023-03-27T11:36:24.418Z,6.38
2023-03-27T11:39:15.419Z,5.66
2023-03-27T11:41:47.030Z,5.12
2023-03-27T11:44:13.711Z,4.69
2023-03-27T11:47:02.007Z,4.59
2023-03-27T11:49:47.736Z,4.61
2023-03-27T11:52:32.528Z,5.04
2023-03-27T11:55:31.247Z,5.60
2023-03-27T11:58:17.414Z,6.01
2023-03-27T12:00:52.152Z,6.34
2023-03-27T12:03:25.045Z,6.63
2023-03-27T12:06:05.606Z,6.72
2023-03-27T12:08:41.200Z,6.82
2023-03-27T12:11:10.536Z,7.07
2023-03-27T12:14:17.657Z,7.42
2023-03-27T12:17:10.821Z,7.51
2023-03-27T12:19:53.048Z,7.76
2023-03-27T12:22:49.303Z,8.00
2023-03-27T12:25:41.357Z,7.37
2023-03-27T12:28:26.044Z,6.66
2023-03-27T12:30:59.057Z,6.35
2023-03-27T12:33:59.783Z,6.36
2023-03-27T12:36:30.896Z,6.39
2023-03-27T12:38:57.891Z,6.46
2023-03-27T12:41:33.509Z,6.54
2023-03-27T12:44:03.609Z,6.38
2023-03-27T12:46:33.150Z,6.09
2023-03-27T12:49:13.630Z,5.96
2023-03-27T12:52:02.749Z,6.05
2023-03-27T12:54:31.681Z,6.11
2023-03-27T12:57:22.279Z,6.37
2023-03-27T12:59:48.785Z,6.31
2023-03-27T13:02:15.850Z,6.25
2023-03-27T13:05:01.004Z,6.48
2023-03-27T13:07:41.339Z,6.52
2023-03-27T13:10:23.174Z,6.60
2023-03-27T13:13:20.283Z,6.78
2023-03-27T13:16:02.627Z,6.92
2023-03-27T13:18:47.222Z,6.92
2023-03-27T13:21:36.371Z,7.02
2023-03-27T13:24:20.802Z,7.01
2023-03-27T13:27:19.457Z,7.12
2023-03-27T13:29:51.402Z,7.14
2023-03-27T13:32:38.798Z,6.79
2023-03-27T13:35:27.426Z,6.25
2023-03-27T13:38:00.723Z,6.29
2023-03-27T13:40:34.463Z,6.15
2023-03-27T13:43:12.416Z,6.10
2023-03-27T13:45:46.833Z,5.98
2023-03-27T13:48:50.400Z,5.89
2023-03-27T13:51:26.553Z,5.92
2023-03-27T13:54:12.836Z,5.99
2023-03-27T13:57:03.388Z,6.11
2023-03-27T13:59:58.808Z,6.39
2023-03-27T14:02:34.276Z,6.67
2023-03-27T14:05:26.742Z,6.76
2023-03-27T14:08:31.179Z,7.00
2023-03-27T14:11:07.080Z,7.15
2023-03-27T14:14:01.317Z,7.23
2023-03-27T14:16:30.703Z,7.29
2023-03-27T14:19:28.633Z,7.32
2023-03-27T14:22:18.530Z,7.48
2023-03-27T14:24:49.033Z,7.82
2023-03-27T14:27:19.357Z,8.03
2023-03-27T14:29:50.389Z,8.04
2023-03-27T14:32:18.132Z,7.79
2023-03-27T14:34:54.029Z,7.65
2023-03-27T14:37:29.010Z,7.58
2023-03-27T14:39:57.176Z,7.56
2023-03-27T14:42:32.987Z,7.08
2023-03-27T14:45:10.962Z,7.08
2023-03-27T14:47:37.498Z,7.28
2023-03-27T14:50:06.111Z,7.43
2023-03-27T14:52:35.217Z,7.51
2023-03-27T14:55:03.832Z,7.47
2023-03-27T14:57:30.446Z,7.58
2023-03-27T14:59:57.277Z,7.58
2023-03-27T15:02:31.795Z,7.51
2023-03-27T15:05:08.191Z,7.37
2023-03-27T15:07:36.283Z,7.16
2023-03-27T15:10:05.498Z,6.90
2023-03-27T15:12:35.978Z,6.67
2023-03-27T15:15:03.503Z,6.80
2023-03-27T15:17:34.496Z,7.11
2023-03-27T15:20:09.938Z,7.25
2023-03-27T15:22:43.124Z,7.02
2023-03-27T15:25:32.032Z,7.07
2023-03-27T15:28:03.160Z,7.25
2023-03-27T15:30:40.650Z,7.44
2023-03-27T15:33:17.341Z,7.50
2023-03-27T15:35:47.670Z,7.51
2023-03-27T15:38:17.147Z,7.51
2023-03-27T15:40:51.026Z,7.54
2023-03-27T15:43:26.335Z,7.57
2023-03-27T15:46:13.806Z,7.41
2023-03-27T15:48:45.156Z,7.29
2023-03-27T15:51:31.856Z,7.36
2023-03-27T15:53:58.956Z,7.39
2023-03-27T15:56:41.034Z,7.45
2023-03-27T15:59:10.976Z,7.55
2023-03-27T16:01:39.764Z,7.57
2023-03-27T16:04:08.246Z,7.74
2023-03-27T16:06:41.075Z,7.79
2023-03-27T16:09:18.937Z,7.67
2023-03-27T16:11:48.328Z,7.64
2023-03-27T16:14:22.515Z,7.73
2023-03-27T16:16:53.634Z,7.54
2023-03-27T16:19:20.230Z,7.14
2023-03-27T16:21:55.242Z,6.89
2023-03-27T16:24:21.791Z,6.72
2023-03-27T16:26:50.368Z,6.63
2023-03-27T16:29:18.659Z,6.72
2023-03-27T16:31:45.308Z,6.87
2023-03-27T16:34:22.515Z,6.84
2023-03-27T16:36:50.002Z,6.79
2023-03-27T16:39:16.486Z,6.88
2023-03-27T16:41:43.156Z,6.87
2023-03-27T16:44:09.573Z,6.90
2023-03-27T16:46:36.065Z,6.84
2023-03-27T16:49:02.645Z,6.89
2023-03-27T16:51:29.604Z,6.81
2023-03-27T16:53:56.068Z,6.58
2023-03-27T16:56:22.558Z,6.45
2023-03-27T16:58:49.232Z,6.36
2023-03-27T17:01:15.699Z,6.27
2023-03-27T17:03:42.279Z,6.22
2023-03-27T17:06:11.452Z,6.10
2023-03-27T17:08:38.013Z,5.92
2023-03-27T17:11:07.593Z,5.75
2023-03-27T17:13:34.412Z,5.59
2023-03-27T17:16:01.110Z,5.49
2023-03-27T17:18:27.764Z,5.33
2023-03-27T17:20:54.343Z,5.28
2023-03-27T17:23:21.181Z,5.18
2023-03-27T17:25:48.368Z,5.14
2023-03-27T17:28:15.051Z,5.17
2023-03-27T17:30:56.663Z,5.17
2023-03-27T17:33:30.195Z,5.17
2023-03-27T17:35:57.042Z,5.20
2023-03-27T17:38:24.118Z,5.16
2023-03-27T17:40:51.160Z,5.15
2023-03-27T17:43:17.733Z,5.09
2023-03-27T17:45:44.327Z,5.03
2023-03-27T17:48:11.552Z,4.97
2023-03-27T17:50:38.978Z,4.93
2023-03-27T17:53:05.514Z,4.92
2023-03-27T17:55:31.998Z,4.90
2023-03-27T17:58:08.977Z,4.87
2023-03-27T18:00:38.491Z,4.86
2023-03-27T18:03:06.301Z,4.83
2023-03-27T18:05:38.061Z,4.86
2023-03-27T18:08:06.057Z,4.84
2023-03-27T18:10:34.818Z,4.85
2023-03-27T18:13:02.525Z,4.85
2023-03-27T18:15:29.603Z,4.83
2023-03-27T18:17:56.088Z,4.84
2023-03-27T18:20:22.569Z,4.75
2023-03-27T18:22:49.096Z,4.65
2023-03-27T18:25:15.588Z,4.63
2023-03-27T18:27:43.372Z,4.62
2023-03-27T18:30:13.511Z,4.54
2023-03-27T18:32:42.720Z,4.49
2023-03-27T18:35:19.778Z,4.43
2023-03-27T18:37:46.816Z,4.37
2023-03-27T18:40:15.426Z,4.33
2023-03-27T18:42:43.923Z,4.30
2023-03-27T18:45:12.661Z,4.25
2023-03-27T18:47:39.433Z,4.21
2023-03-27T18:50:06.971Z,4.17
2023-03-27T18:52:33.419Z,4.13
2023-03-27T18:54:59.860Z,4.08
2023-03-27T18:57:27.629Z,4.02
2023-03-27T18:59:55.251Z,3.99
2023-03-27T19:02:21.797Z,3.97
2023-03-27T19:04:48.558Z,3.94
2023-03-27T19:07:16.412Z,3.89
2023-03-27T19:09:43.180Z,3.85
2023-03-27T19:12:10.525Z,3.81
2023-03-27T19:14:36.969Z,3.80
2023-03-27T19:17:03.994Z,3.74
2023-03-27T19:19:31.987Z,3.73
2023-03-27T19:21:58.680Z,3.71
2023-03-27T19:24:25.196Z,3.64
2023-03-27T19:26:52.667Z,3.59
2023-03-27T19:29:19.271Z,3.54
2023-03-27T19:31:45.718Z,3.51
2023-03-27T19:34:12.265Z,3.45
2023-03-27T19:36:38.644Z,3.42
2023-03-27T19:39:05.091Z,3.39
2023-03-27T19:41:31.607Z,3.32
2023-03-27T19:44:00.190Z,3.29
2023-03-27T19:46:28.592Z,3.26
2023-03-27T19:48:55.842Z,3.24
2023-03-27T19:51:22.893Z,3.18
2023-03-27T19:53:49.376Z,3.14
2023-03-27T19:56:16.145Z,3.10
2023-03-27T19:58:42.745Z,3.05
2023-03-27T20:01:09.392Z,3.00
2023-03-27T20:03:38.419Z,2.96
2023-03-27T20:06:11.796Z,2.92
2023-03-27T20:08:39.938Z,2.89
2023-03-27T20:11:07.179Z,2.86
2023-03-27T20:13:42.407Z,2.83
2023-03-27T20:16:16.478Z,2.82
2023-03-27T20:18:43.541Z,2.82
2023-03-27T20:21:13.711Z,2.81
2023-03-27T20:23:41.856Z,2.79
2023-03-27T20:26:09.111Z,2.75
2023-03-27T20:28:35.719Z,2.71
2023-03-27T20:31:04.197Z,2.69
2023-03-27T20:33:31.099Z,2.65
2023-03-27T20:35:57.774Z,2.60
2023-03-27T20:38:28.659Z,2.58
2023-03-27T20:40:56.401Z,2.54
2023-03-27T20:43:22.969Z,2.51
2023-03-27T20:45:54.885Z,2.48
2023-03-27T20:48:21.928Z,2.44
2023-03-27T20:50:53.280Z,2.39
2023-03-27T20:53:33.902Z,2.32
2023-03-27T20:56:05.831Z,2.27
2023-03-27T20:58:35.399Z,2.22
2023-03-27T21:01:05.020Z,2.20
2023-03-27T21:03:34.930Z,2.16
2023-03-27T21:06:06.157Z,2.09
2023-03-27T21:08:34.478Z,2.04
2023-03-27T21:11:01.989Z,2.00
2023-03-27T21:13:28.919Z,1.92
2023-03-27T21:15:55.400Z,1.89
2023-03-27T21:18:21.811Z,1.87
2023-03-27T21:20:48.354Z,1.82
2023-03-27T21:23:15.113Z,1.78
2023-03-27T21:25:42.022Z,1.73
2023-03-27T21:28:10.734Z,1.66
2023-03-27T21:30:47.354Z,1.64
2023-03-27T21:33:16.400Z,1.61
2023-03-27T21:35:46.760Z,1.59
2023-03-27T21:38:15.518Z,1.56
2023-03-27T21:40:42.815Z,1.57
2023-03-27T21:43:09.409Z,1.57
2023-03-27T21:45:36.447Z,1.53
2023-03-27T21:48:03.253Z,1.49
2023-03-27T21:50:29.833Z,1.49
2023-03-27T21:52:56.445Z,1.45
2023-03-27T21:55:23.075Z,1.42
2023-03-27T21:57:49.629Z,1.39
2023-03-27T22:00:16.322Z,1.37
2023-03-27T22:02:42.894Z,1.35
2023-03-27T22:05:09.850Z,1.33
2023-03-27T22:07:36.743Z,1.30
2023-03-27T22:10:06.192Z,1.31
2023-03-27T22:12:36.979Z,1.28
2023-03-27T22:15:05.948Z,1.22
2023-03-27T22:17:34.835Z,1.19
2023-03-27T22:20:01.284Z,1.17
2023-03-27T22:22:27.729Z,1.16
2023-03-27T22:24:54.225Z,1.14
2023-03-27T22:27:20.662Z,1.14
2023-03-27T22:29:47.106Z,1.12
2023-03-27T22:32:13.673Z,1.09
2023-03-27T22:34:40.269Z,1.08
2023-03-27T22:37:06.738Z,1.04
2023-03-27T22:39:33.337Z,1.00
2023-03-27T22:41:59.726Z,0.97
2023-03-27T22:44:26.386Z,0.94
2023-03-27T22:46:53.027Z,0.91
2023-03-27T22:49:19.586Z,0.90
2023-03-27T22:51:46.017Z,0.88
2023-03-27T22:54:12.562Z,0.88
2023-03-27T22:56:39.086Z,0.86
2023-03-27T22:59:06.096Z,0.85
2023-03-27T23:01:32.649Z,0.84
2023-03-27T23:03:59.217Z,0.83
2023-03-27T23:06:25.920Z,0.82
2023-03-27T23:08:52.565Z,0.81
2023-03-27T23:11:19.374Z,0.79
2023-03-27T23:13:46.409Z,0.77
2023-03-27T23:16:13.381Z,0.75
2023-03-27T23:18:40.218Z,0.71
2023-03-27T23:21:09.303Z,0.67
2023-03-27T23:23:38.307Z,0.63
2023-03-27T23:26:06.628Z,0.60
2023-03-27T23:28:35.653Z,0.59
2023-03-27T23:31:07.628Z,0.57
2023-03-27T23:33:37.498Z,0.55
2023-03-27T23:36:06.073Z,0.54
2023-03-27T23:38:32.988Z,0.50
2023-03-27T23:41:01.083Z,0.48
2023-03-27T23:43:29.009Z,0.44
2023-03-27T23:45:56.098Z,0.41
2023-03-27T23:48:23.360Z,0.40
2023-03-27T23:50:49.970Z,0.35
2023-03-27T23:53:16.999Z,0.32
2023-03-27T23:55:43.462Z,0.31
2023-03-27T23:58:09.958Z,0.33
